sensor_id;sensor_type;location;lat;lon;timestamp;temperature;humidity
19206;DHT22;59358;52.134;5.596;2022-10-26T00:00:08;10.00;99.90
19206;DHT22;59358;52.134;5.596;2022-10-26T00:02:34;10.00;99.90
19206;DHT22;59358;52.134;5.596;2022-10-26T00:05:01;10.00;99.90
19206;DHT22;59358;52.134;5.596;2022-10-26T00:07:28;10.10;99.90
19206;DHT22;59358;52.134;5.596;2022-10-26T00:09:55;10.10;99.90
19206;DHT22;59358;52.134;5.596;2022-10-26T00:12:22;10.10;99.90
19206;DHT22;59358;52.134;5.596;2022-10-26T00:14:50;10.10;99.90
19206;DHT22;59358;52.134;5.596;2022-10-26T00:17:16;10.10;99.90
19206;DHT22;59358;52.134;5.596;2022-10-26T00:19:43;10.10;99.90
19206;DHT22;59358;52.134;5.596;2022-10-26T00:22:10;10.20;99.90
19206;DHT22;59358;52.134;5.596;2022-10-26T00:24:37;10.20;99.90
19206;DHT22;59358;52.134;5.596;2022-10-26T00:27:04;10.30;99.90
19206;DHT22;59358;52.134;5.596;2022-10-26T00:29:31;10.30;99.90
19206;DHT22;59358;52.134;5.596;2022-10-26T00:31:59;10.30;99.90
19206;DHT22;59358;52.134;5.596;2022-10-26T00:34:26;10.40;99.90
19206;DHT22;59358;52.134;5.596;2022-10-26T00:36:53;10.40;99.90
19206;DHT22;59358;52.134;5.596;2022-10-26T00:39:20;10.40;99.90
19206;DHT22;59358;52.134;5.596;2022-10-26T00:41:48;10.40;99.90
19206;DHT22;59358;52.134;5.596;2022-10-26T00:44:43;10.40;99.90
19206;DHT22;59358;52.134;5.596;2022-10-26T00:47:26;10.40;99.90
19206;DHT22;59358;52.134;5.596;2022-10-26T00:49:55;10.40;99.90
19206;DHT22;59358;52.134;5.596;2022-10-26T00:52:23;10.40;99.90
19206;DHT22;59358;52.134;5.596;2022-10-26T00:54:51;10.40;99.90
19206;DHT22;59358;52.134;5.596;2022-10-26T00:57:18;10.40;99.90
19206;DHT22;59358;52.134;5.596;2022-10-26T00:59:46;10.40;99.90
19206;DHT22;59358;52.134;5.596;2022-10-26T01:02:13;10.40;99.90
19206;DHT22;59358;52.134;5.596;2022-10-26T01:04:43;10.50;99.90
19206;DHT22;59358;52.134;5.596;2022-10-26T01:07:12;10.50;99.90
19206;DHT22;59358;52.134;5.596;2022-10-26T01:09:39;10.60;99.90
19206;DHT22;59358;52.134;5.596;2022-10-26T01:12:06;10.60;99.90
19206;DHT22;59358;52.134;5.596;2022-10-26T01:14:33;10.60;99.90
19206;DHT22;59358;52.134;5.596;2022-10-26T01:17:04;10.70;99.90
19206;DHT22;59358;52.134;5.596;2022-10-26T01:19:59;10.70;99.90
19206;DHT22;59358;52.134;5.596;2022-10-26T01:22:35;10.70;99.90
19206;DHT22;59358;52.134;5.596;2022-10-26T01:25:13;10.80;99.90
19206;DHT22;59358;52.134;5.596;2022-10-26T01:27:43;10.80;99.90
19206;DHT22;59358;52.134;5.596;2022-10-26T01:30:18;10.80;99.90
19206;DHT22;59358;52.134;5.596;2022-10-26T01:35:38;10.90;99.90
19206;DHT22;59358;52.134;5.596;2022-10-26T01:38:13;10.90;99.90
19206;DHT22;59358;52.134;5.596;2022-10-26T01:40:45;11.00;99.90
19206;DHT22;59358;52.134;5.596;2022-10-26T01:43:15;11.00;99.90
19206;DHT22;59358;52.134;5.596;2022-10-26T01:45:46;11.10;99.90
19206;DHT22;59358;52.134;5.596;2022-10-26T01:48:16;11.10;99.90
19206;DHT22;59358;52.134;5.596;2022-10-26T01:50:46;11.10;99.90
19206;DHT22;59358;52.134;5.596;2022-10-26T01:53:14;11.10;99.90
19206;DHT22;59358;52.134;5.596;2022-10-26T01:55:44;11.10;99.90
19206;DHT22;59358;52.134;5.596;2022-10-26T01:58:39;11.20;99.90
19206;DHT22;59358;52.134;5.596;2022-10-26T02:01:21;11.20;99.90
19206;DHT22;59358;52.134;5.596;2022-10-26T02:03:58;11.20;99.90
19206;DHT22;59358;52.134;5.596;2022-10-26T02:06:33;11.20;99.90
19206;DHT22;59358;52.134;5.596;2022-10-26T02:09:07;11.20;99.90
19206;DHT22;59358;52.134;5.596;2022-10-26T02:11:40;11.30;99.90
19206;DHT22;59358;52.134;5.596;2022-10-26T02:14:12;11.30;99.90
19206;DHT22;59358;52.134;5.596;2022-10-26T02:16:52;11.30;99.90
19206;DHT22;59358;52.134;5.596;2022-10-26T02:19:32;11.30;99.90
19206;DHT22;59358;52.134;5.596;2022-10-26T02:22:04;11.30;99.90
19206;DHT22;59358;52.134;5.596;2022-10-26T02:24:33;11.30;99.90
19206;DHT22;59358;52.134;5.596;2022-10-26T02:27:02;11.40;99.90
19206;DHT22;59358;52.134;5.596;2022-10-26T02:29:30;11.40;99.90
19206;DHT22;59358;52.134;5.596;2022-10-26T02:32:01;11.40;99.90
19206;DHT22;59358;52.134;5.596;2022-10-26T02:34:29;11.40;99.90
19206;DHT22;59358;52.134;5.596;2022-10-26T02:36:58;11.50;99.90
19206;DHT22;59358;52.134;5.596;2022-10-26T02:39:29;11.50;99.90
19206;DHT22;59358;52.134;5.596;2022-10-26T02:42:01;11.50;99.90
19206;DHT22;59358;52.134;5.596;2022-10-26T02:44:31;11.60;99.90
19206;DHT22;59358;52.134;5.596;2022-10-26T02:47:01;11.60;99.90
19206;DHT22;59358;52.134;5.596;2022-10-26T02:49:28;11.60;99.90
19206;DHT22;59358;52.134;5.596;2022-10-26T02:52:01;11.70;99.90
19206;DHT22;59358;52.134;5.596;2022-10-26T02:54:34;11.70;99.90
19206;DHT22;59358;52.134;5.596;2022-10-26T02:57:07;11.80;99.90
19206;DHT22;59358;52.134;5.596;2022-10-26T02:59:35;11.80;99.90
19206;DHT22;59358;52.134;5.596;2022-10-26T03:02:04;11.80;99.90
19206;DHT22;59358;52.134;5.596;2022-10-26T03:04:32;11.90;99.90
19206;DHT22;59358;52.134;5.596;2022-10-26T03:07:00;11.90;99.90
19206;DHT22;59358;52.134;5.596;2022-10-26T03:09:27;12.00;99.90
19206;DHT22;59358;52.134;5.596;2022-10-26T03:11:54;12.00;99.90
19206;DHT22;59358;52.134;5.596;2022-10-26T03:14:21;12.00;99.90
19206;DHT22;59358;52.134;5.596;2022-10-26T03:16:48;12.00;99.90
19206;DHT22;59358;52.134;5.596;2022-10-26T03:19:16;12.00;99.90
19206;DHT22;59358;52.134;5.596;2022-10-26T03:21:43;12.00;99.90
19206;DHT22;59358;52.134;5.596;2022-10-26T03:24:10;12.10;99.90
19206;DHT22;59358;52.134;5.596;2022-10-26T03:26:37;12.10;99.90
19206;DHT22;59358;52.134;5.596;2022-10-26T03:29:03;12.10;99.90
19206;DHT22;59358;52.134;5.596;2022-10-26T03:31:30;12.20;99.90
19206;DHT22;59358;52.134;5.596;2022-10-26T03:33:58;12.20;99.90
19206;DHT22;59358;52.134;5.596;2022-10-26T03:36:26;12.20;99.90
19206;DHT22;59358;52.134;5.596;2022-10-26T03:38:53;12.20;99.90
19206;DHT22;59358;52.134;5.596;2022-10-26T03:41:19;12.20;99.90
19206;DHT22;59358;52.134;5.596;2022-10-26T03:43:46;12.20;99.90
19206;DHT22;59358;52.134;5.596;2022-10-26T03:46:14;12.20;99.90
19206;DHT22;59358;52.134;5.596;2022-10-26T03:48:40;12.20;99.90
19206;DHT22;59358;52.134;5.596;2022-10-26T03:51:07;12.20;99.90
19206;DHT22;59358;52.134;5.596;2022-10-26T03:53:35;12.20;99.90
19206;DHT22;59358;52.134;5.596;2022-10-26T03:56:02;12.20;99.90
19206;DHT22;59358;52.134;5.596;2022-10-26T03:58:29;12.20;99.90
19206;DHT22;59358;52.134;5.596;2022-10-26T04:00:56;12.20;99.90
19206;DHT22;59358;52.134;5.596;2022-10-26T04:03:22;12.20;99.90
19206;DHT22;59358;52.134;5.596;2022-10-26T04:05:49;12.20;99.90
19206;DHT22;59358;52.134;5.596;2022-10-26T04:08:16;12.10;99.90
19206;DHT22;59358;52.134;5.596;2022-10-26T04:10:45;12.10;99.90
19206;DHT22;59358;52.134;5.596;2022-10-26T04:13:12;12.10;99.90
19206;DHT22;59358;52.134;5.596;2022-10-26T04:15:39;12.00;99.90
19206;DHT22;59358;52.134;5.596;2022-10-26T04:18:05;12.00;99.90
19206;DHT22;59358;52.134;5.596;2022-10-26T04:20:32;12.00;99.90
19206;DHT22;59358;52.134;5.596;2022-10-26T04:23:02;12.00;99.90
19206;DHT22;59358;52.134;5.596;2022-10-26T04:25:30;11.90;99.90
19206;DHT22;59358;52.134;5.596;2022-10-26T04:27:58;11.90;99.90
19206;DHT22;59358;52.134;5.596;2022-10-26T04:30:25;11.80;99.90
19206;DHT22;59358;52.134;5.596;2022-10-26T04:32:52;11.70;99.90
19206;DHT22;59358;52.134;5.596;2022-10-26T04:35:19;11.60;99.90
19206;DHT22;59358;52.134;5.596;2022-10-26T04:37:45;11.60;99.90
19206;DHT22;59358;52.134;5.596;2022-10-26T04:40:12;11.60;99.90
19206;DHT22;59358;52.134;5.596;2022-10-26T04:42:41;11.50;99.90
19206;DHT22;59358;52.134;5.596;2022-10-26T04:45:10;11.50;99.90
19206;DHT22;59358;52.134;5.596;2022-10-26T04:47:38;11.50;99.90
19206;DHT22;59358;52.134;5.596;2022-10-26T04:50:06;11.40;99.90
19206;DHT22;59358;52.134;5.596;2022-10-26T04:52:34;11.40;99.90
19206;DHT22;59358;52.134;5.596;2022-10-26T04:55:01;11.40;99.90
19206;DHT22;59358;52.134;5.596;2022-10-26T04:57:30;11.40;99.90
19206;DHT22;59358;52.134;5.596;2022-10-26T04:59:57;11.40;99.90
19206;DHT22;59358;52.134;5.596;2022-10-26T05:02:25;11.40;99.90
19206;DHT22;59358;52.134;5.596;2022-10-26T05:04:55;11.40;99.90
19206;DHT22;59358;52.134;5.596;2022-10-26T05:07:22;11.40;99.90
19206;DHT22;59358;52.134;5.596;2022-10-26T05:09:49;11.50;99.90
19206;DHT22;59358;52.134;5.596;2022-10-26T05:12:16;11.50;99.90
19206;DHT22;59358;52.134;5.596;2022-10-26T05:14:42;11.50;99.90
19206;DHT22;59358;52.134;5.596;2022-10-26T05:17:10;11.50;99.90
19206;DHT22;59358;52.134;5.596;2022-10-26T05:19:38;11.60;99.90
19206;DHT22;59358;52.134;5.596;2022-10-26T05:22:05;11.60;99.90
19206;DHT22;59358;52.134;5.596;2022-10-26T05:24:32;11.60;99.90
19206;DHT22;59358;52.134;5.596;2022-10-26T05:26:59;11.60;99.90
19206;DHT22;59358;52.134;5.596;2022-10-26T05:29:26;11.50;99.90
19206;DHT22;59358;52.134;5.596;2022-10-26T05:31:53;11.50;99.90
19206;DHT22;59358;52.134;5.596;2022-10-26T05:34:20;11.40;99.90
19206;DHT22;59358;52.134;5.596;2022-10-26T05:36:48;11.40;99.90
19206;DHT22;59358;52.134;5.596;2022-10-26T05:39:14;11.40;99.90
19206;DHT22;59358;52.134;5.596;2022-10-26T05:41:41;11.40;99.90
19206;DHT22;59358;52.134;5.596;2022-10-26T05:44:08;11.40;99.90
19206;DHT22;59358;52.134;5.596;2022-10-26T05:46:34;11.40;99.90
19206;DHT22;59358;52.134;5.596;2022-10-26T05:49:01;11.50;99.90
19206;DHT22;59358;52.134;5.596;2022-10-26T05:51:29;11.50;99.90
19206;DHT22;59358;52.134;5.596;2022-10-26T05:53:59;11.50;99.90
19206;DHT22;59358;52.134;5.596;2022-10-26T05:56:33;11.60;99.90
19206;DHT22;59358;52.134;5.596;2022-10-26T05:59:01;11.70;99.90
19206;DHT22;59358;52.134;5.596;2022-10-26T06:01:34;11.80;99.90
19206;DHT22;59358;52.134;5.596;2022-10-26T06:04:17;11.80;99.90
19206;DHT22;59358;52.134;5.596;2022-10-26T06:06:51;11.90;99.90
19206;DHT22;59358;52.134;5.596;2022-10-26T06:09:20;11.90;99.90
19206;DHT22;59358;52.134;5.596;2022-10-26T06:11:48;12.00;99.90
19206;DHT22;59358;52.134;5.596;2022-10-26T06:14:15;12.00;99.90
19206;DHT22;59358;52.134;5.596;2022-10-26T06:16:53;12.00;99.90
19206;DHT22;59358;52.134;5.596;2022-10-26T06:19:33;12.10;99.90
19206;DHT22;59358;52.134;5.596;2022-10-26T06:22:12;12.10;99.90
19206;DHT22;59358;52.134;5.596;2022-10-26T06:24:49;12.10;99.90
19206;DHT22;59358;52.134;5.596;2022-10-26T06:27:32;12.20;99.90
19206;DHT22;59358;52.134;5.596;2022-10-26T06:30:04;12.20;99.90
19206;DHT22;59358;52.134;5.596;2022-10-26T06:32:31;12.10;99.90
19206;DHT22;59358;52.134;5.596;2022-10-26T06:35:22;12.10;99.90
19206;DHT22;59358;52.134;5.596;2022-10-26T06:41:13;12.10;99.90
19206;DHT22;59358;52.134;5.596;2022-10-26T06:43:48;12.00;99.90
19206;DHT22;59358;52.134;5.596;2022-10-26T06:46:35;12.20;99.90
19206;DHT22;59358;52.134;5.596;2022-10-26T06:49:10;12.20;99.90
19206;DHT22;59358;52.134;5.596;2022-10-26T06:51:48;12.30;99.90
19206;DHT22;59358;52.134;5.596;2022-10-26T06:54:24;12.30;99.90
19206;DHT22;59358;52.134;5.596;2022-10-26T06:57:01;12.40;99.90
19206;DHT22;59358;52.134;5.596;2022-10-26T06:59:41;12.40;99.90
19206;DHT22;59358;52.134;5.596;2022-10-26T07:02:12;12.50;99.90
19206;DHT22;59358;52.134;5.596;2022-10-26T07:04:42;12.50;99.90
19206;DHT22;59358;52.134;5.596;2022-10-26T07:07:14;12.60;99.90
19206;DHT22;59358;52.134;5.596;2022-10-26T07:09:42;12.70;99.90
19206;DHT22;59358;52.134;5.596;2022-10-26T07:12:14;12.80;99.90
19206;DHT22;59358;52.134;5.596;2022-10-26T07:14:42;13.00;99.90
19206;DHT22;59358;52.134;5.596;2022-10-26T07:17:10;13.10;99.90
19206;DHT22;59358;52.134;5.596;2022-10-26T07:19:37;13.20;99.90
19206;DHT22;59358;52.134;5.596;2022-10-26T07:22:05;13.20;99.90
19206;DHT22;59358;52.134;5.596;2022-10-26T07:24:32;13.20;99.90
19206;DHT22;59358;52.134;5.596;2022-10-26T07:26:59;13.30;99.90
19206;DHT22;59358;52.134;5.596;2022-10-26T07:29:27;13.40;99.90
19206;DHT22;59358;52.134;5.596;2022-10-26T07:31:54;13.50;99.90
19206;DHT22;59358;52.134;5.596;2022-10-26T07:34:21;13.50;99.90
19206;DHT22;59358;52.134;5.596;2022-10-26T07:36:48;13.60;99.90
19206;DHT22;59358;52.134;5.596;2022-10-26T07:39:16;13.70;99.90
19206;DHT22;59358;52.134;5.596;2022-10-26T07:41:44;13.90;99.90
19206;DHT22;59358;52.134;5.596;2022-10-26T07:44:11;13.90;99.90
19206;DHT22;59358;52.134;5.596;2022-10-26T07:46:39;14.00;99.90
19206;DHT22;59358;52.134;5.596;2022-10-26T07:49:06;14.00;99.90
19206;DHT22;59358;52.134;5.596;2022-10-26T07:51:33;14.00;99.90
19206;DHT22;59358;52.134;5.596;2022-10-26T07:54:00;14.00;99.90
19206;DHT22;59358;52.134;5.596;2022-10-26T07:56:27;14.10;99.90
19206;DHT22;59358;52.134;5.596;2022-10-26T07:58:54;14.10;99.90
19206;DHT22;59358;52.134;5.596;2022-10-26T08:01:22;14.10;99.90
19206;DHT22;59358;52.134;5.596;2022-10-26T08:03:52;14.30;99.90
19206;DHT22;59358;52.134;5.596;2022-10-26T08:06:19;14.50;99.90
19206;DHT22;59358;52.134;5.596;2022-10-26T08:08:46;14.70;99.90
19206;DHT22;59358;52.134;5.596;2022-10-26T08:11:13;14.80;99.90
19206;DHT22;59358;52.134;5.596;2022-10-26T08:13:40;14.90;99.90
19206;DHT22;59358;52.134;5.596;2022-10-26T08:16:07;15.10;99.90
19206;DHT22;59358;52.134;5.596;2022-10-26T08:18:34;15.40;99.90
19206;DHT22;59358;52.134;5.596;2022-10-26T08:21:04;15.60;99.90
19206;DHT22;59358;52.134;5.596;2022-10-26T08:23:32;15.70;99.90
19206;DHT22;59358;52.134;5.596;2022-10-26T08:25:59;15.70;99.90
19206;DHT22;59358;52.134;5.596;2022-10-26T08:28:27;15.80;99.90
19206;DHT22;59358;52.134;5.596;2022-10-26T08:30:54;15.80;99.90
19206;DHT22;59358;52.134;5.596;2022-10-26T08:33:22;15.90;99.90
19206;DHT22;59358;52.134;5.596;2022-10-26T08:35:53;15.90;99.90
19206;DHT22;59358;52.134;5.596;2022-10-26T08:38:22;16.00;99.90
19206;DHT22;59358;52.134;5.596;2022-10-26T08:40:49;16.10;99.90
19206;DHT22;59358;52.134;5.596;2022-10-26T08:43:20;16.20;99.90
19206;DHT22;59358;52.134;5.596;2022-10-26T08:45:51;16.30;99.90
19206;DHT22;59358;52.134;5.596;2022-10-26T08:48:22;16.50;99.90
19206;DHT22;59358;52.134;5.596;2022-10-26T08:50:52;16.50;99.90
19206;DHT22;59358;52.134;5.596;2022-10-26T08:53:25;16.70;99.90
19206;DHT22;59358;52.134;5.596;2022-10-26T08:55:58;16.80;99.90
19206;DHT22;59358;52.134;5.596;2022-10-26T08:58:29;16.80;99.90
19206;DHT22;59358;52.134;5.596;2022-10-26T09:00:58;16.80;99.90
19206;DHT22;59358;52.134;5.596;2022-10-26T09:03:25;16.70;99.90
19206;DHT22;59358;52.134;5.596;2022-10-26T09:06:06;16.70;99.90
19206;DHT22;59358;52.134;5.596;2022-10-26T09:08:44;16.70;99.90
19206;DHT22;59358;52.134;5.596;2022-10-26T09:11:22;16.70;99.90
19206;DHT22;59358;52.134;5.596;2022-10-26T09:13:58;16.70;99.90
19206;DHT22;59358;52.134;5.596;2022-10-26T09:16:34;17.00;99.90
19206;DHT22;59358;52.134;5.596;2022-10-26T09:19:22;17.10;99.90
19206;DHT22;59358;52.134;5.596;2022-10-26T09:21:57;17.30;99.90
19206;DHT22;59358;52.134;5.596;2022-10-26T09:24:30;17.40;99.90
19206;DHT22;59358;52.134;5.596;2022-10-26T09:27:03;17.40;99.90
19206;DHT22;59358;52.134;5.596;2022-10-26T09:29:39;17.20;99.90
19206;DHT22;59358;52.134;5.596;2022-10-26T09:32:14;17.40;99.90
19206;DHT22;59358;52.134;5.596;2022-10-26T09:34:47;17.80;99.90
19206;DHT22;59358;52.134;5.596;2022-10-26T09:37:18;17.90;99.90
19206;DHT22;59358;52.134;5.596;2022-10-26T09:39:54;18.10;99.90
19206;DHT22;59358;52.134;5.596;2022-10-26T09:42:26;18.30;99.90
19206;DHT22;59358;52.134;5.596;2022-10-26T09:45:00;18.30;99.90
19206;DHT22;59358;52.134;5.596;2022-10-26T09:47:46;18.50;99.90
19206;DHT22;59358;52.134;5.596;2022-10-26T09:50:21;18.60;99.90
19206;DHT22;59358;52.134;5.596;2022-10-26T09:52:48;18.50;99.90
19206;DHT22;59358;52.134;5.596;2022-10-26T09:55:17;18.40;99.90
19206;DHT22;59358;52.134;5.596;2022-10-26T09:57:46;18.20;99.90
19206;DHT22;59358;52.134;5.596;2022-10-26T10:00:15;18.20;99.90
19206;DHT22;59358;52.134;5.596;2022-10-26T10:02:43;18.10;99.90
19206;DHT22;59358;52.134;5.596;2022-10-26T10:05:21;18.00;99.90
19206;DHT22;59358;52.134;5.596;2022-10-26T10:07:48;18.00;99.90
19206;DHT22;59358;52.134;5.596;2022-10-26T10:10:18;17.90;99.90
19206;DHT22;59358;52.134;5.596;2022-10-26T10:12:47;17.90;99.90
19206;DHT22;59358;52.134;5.596;2022-10-26T10:15:17;18.10;99.90
19206;DHT22;59358;52.134;5.596;2022-10-26T10:17:49;18.30;99.90
19206;DHT22;59358;52.134;5.596;2022-10-26T10:20:19;18.40;99.90
19206;DHT22;59358;52.134;5.596;2022-10-26T10:22:57;18.50;99.90
19206;DHT22;59358;52.134;5.596;2022-10-26T10:25:33;18.50;99.90
19206;DHT22;59358;52.134;5.596;2022-10-26T10:28:07;18.70;99.90
19206;DHT22;59358;52.134;5.596;2022-10-26T10:30:51;18.70;99.90
19206;DHT22;59358;52.134;5.596;2022-10-26T10:33:19;18.80;99.90
19206;DHT22;59358;52.134;5.596;2022-10-26T10:35:48;19.00;99.90
19206;DHT22;59358;52.134;5.596;2022-10-26T10:38:19;19.00;99.90
19206;DHT22;59358;52.134;5.596;2022-10-26T10:40:54;19.10;99.90
19206;DHT22;59358;52.134;5.596;2022-10-26T10:43:21;19.30;99.90
19206;DHT22;59358;52.134;5.596;2022-10-26T10:45:51;19.40;99.90
19206;DHT22;59358;52.134;5.596;2022-10-26T10:48:20;19.30;99.90
19206;DHT22;59358;52.134;5.596;2022-10-26T10:50:53;19.30;99.90
19206;DHT22;59358;52.134;5.596;2022-10-26T10:53:25;19.40;99.90
19206;DHT22;59358;52.134;5.596;2022-10-26T10:56:10;19.30;99.90
19206;DHT22;59358;52.134;5.596;2022-10-26T10:58:45;19.20;99.90
19206;DHT22;59358;52.134;5.596;2022-10-26T11:01:20;19.20;99.90
19206;DHT22;59358;52.134;5.596;2022-10-26T11:06:42;19.30;99.90
19206;DHT22;59358;52.134;5.596;2022-10-26T11:09:12;19.40;99.90
19206;DHT22;59358;52.134;5.596;2022-10-26T11:11:44;19.40;99.90
19206;DHT22;59358;52.134;5.596;2022-10-26T11:14:15;19.40;99.90
19206;DHT22;59358;52.134;5.596;2022-10-26T11:16:45;19.50;99.90
19206;DHT22;59358;52.134;5.596;2022-10-26T11:19:18;19.40;99.90
19206;DHT22;59358;52.134;5.596;2022-10-26T11:21:49;19.40;99.90
19206;DHT22;59358;52.134;5.596;2022-10-26T11:24:23;19.60;99.90
19206;DHT22;59358;52.134;5.596;2022-10-26T11:26:56;19.60;99.90
19206;DHT22;59358;52.134;5.596;2022-10-26T11:29:32;19.60;99.90
19206;DHT22;59358;52.134;5.596;2022-10-26T11:32:05;19.50;99.90
19206;DHT22;59358;52.134;5.596;2022-10-26T11:34:38;19.40;99.90
19206;DHT22;59358;52.134;5.596;2022-10-26T11:37:12;19.20;99.90
19206;DHT22;59358;52.134;5.596;2022-10-26T11:39:44;19.10;99.90
19206;DHT22;59358;52.134;5.596;2022-10-26T11:42:20;19.20;99.90
19206;DHT22;59358;52.134;5.596;2022-10-26T11:44:54;19.20;99.90
19206;DHT22;59358;52.134;5.596;2022-10-26T11:47:27;19.30;99.90
19206;DHT22;59358;52.134;5.596;2022-10-26T11:50:03;19.00;99.90
19206;DHT22;59358;52.134;5.596;2022-10-26T11:52:36;18.80;99.90
19206;DHT22;59358;52.134;5.596;2022-10-26T11:55:06;18.80;99.90
19206;DHT22;59358;52.134;5.596;2022-10-26T11:57:36;18.80;99.90
19206;DHT22;59358;52.134;5.596;2022-10-26T12:00:07;18.70;99.90
19206;DHT22;59358;52.134;5.596;2022-10-26T12:02:38;18.80;99.90
19206;DHT22;59358;52.134;5.596;2022-10-26T12:05:21;18.90;99.90
19206;DHT22;59358;52.134;5.596;2022-10-26T12:07:51;19.10;99.90
19206;DHT22;59358;52.134;5.596;2022-10-26T12:10:26;19.30;99.90
19206;DHT22;59358;52.134;5.596;2022-10-26T12:13:02;19.00;99.90
19206;DHT22;59358;52.134;5.596;2022-10-26T12:15:33;18.90;99.90
19206;DHT22;59358;52.134;5.596;2022-10-26T12:18:10;19.20;99.90
19206;DHT22;59358;52.134;5.596;2022-10-26T12:20:52;19.30;99.90
19206;DHT22;59358;52.134;5.596;2022-10-26T12:23:20;19.30;99.90
19206;DHT22;59358;52.134;5.596;2022-10-26T12:25:48;19.30;99.90
19206;DHT22;59358;52.134;5.596;2022-10-26T12:28:50;19.40;99.90
19206;DHT22;59358;52.134;5.596;2022-10-26T12:31:42;19.60;99.90
19206;DHT22;59358;52.134;5.596;2022-10-26T12:34:14;19.50;99.90
19206;DHT22;59358;52.134;5.596;2022-10-26T12:36:48;19.60;99.90
19206;DHT22;59358;52.134;5.596;2022-10-26T12:39:27;19.60;99.90
19206;DHT22;59358;52.134;5.596;2022-10-26T12:41:55;19.70;99.90
19206;DHT22;59358;52.134;5.596;2022-10-26T12:44:34;19.70;99.90
19206;DHT22;59358;52.134;5.596;2022-10-26T12:47:02;19.60;99.90
19206;DHT22;59358;52.134;5.596;2022-10-26T12:52:41;20.00;99.90
19206;DHT22;59358;52.134;5.596;2022-10-26T12:58:29;20.20;99.90
19206;DHT22;59358;52.134;5.596;2022-10-26T13:01:32;20.20;99.90
19206;DHT22;59358;52.134;5.596;2022-10-26T13:04:19;20.30;99.90
19206;DHT22;59358;52.134;5.596;2022-10-26T13:07:10;20.30;99.90
19206;DHT22;59358;52.134;5.596;2022-10-26T13:09:44;20.40;99.90
19206;DHT22;59358;52.134;5.596;2022-10-26T13:12:11;20.30;99.90
19206;DHT22;59358;52.134;5.596;2022-10-26T13:14:50;20.20;99.90
19206;DHT22;59358;52.134;5.596;2022-10-26T13:17:24;20.30;99.90
19206;DHT22;59358;52.134;5.596;2022-10-26T13:19:55;20.20;99.90
19206;DHT22;59358;52.134;5.596;2022-10-26T13:22:23;20.20;99.90
19206;DHT22;59358;52.134;5.596;2022-10-26T13:24:52;20.20;99.90
19206;DHT22;59358;52.134;5.596;2022-10-26T13:27:38;20.10;99.90
19206;DHT22;59358;52.134;5.596;2022-10-26T13:30:44;20.20;99.90
19206;DHT22;59358;52.134;5.596;2022-10-26T13:33:26;20.10;99.90
19206;DHT22;59358;52.134;5.596;2022-10-26T13:35:57;19.90;99.90
19206;DHT22;59358;52.134;5.596;2022-10-26T13:38:31;20.00;99.90
19206;DHT22;59358;52.134;5.596;2022-10-26T13:41:10;20.10;99.90
19206;DHT22;59358;52.134;5.596;2022-10-26T13:43:40;20.10;99.90
19206;DHT22;59358;52.134;5.596;2022-10-26T13:46:22;20.20;99.90
19206;DHT22;59358;52.134;5.596;2022-10-26T13:48:51;20.30;99.90
19206;DHT22;59358;52.134;5.596;2022-10-26T13:51:21;20.30;99.90
19206;DHT22;59358;52.134;5.596;2022-10-26T13:53:51;20.10;99.90
19206;DHT22;59358;52.134;5.596;2022-10-26T13:56:27;20.00;99.90
19206;DHT22;59358;52.134;5.596;2022-10-26T13:58:59;20.10;99.90
19206;DHT22;59358;52.134;5.596;2022-10-26T14:01:27;20.10;99.90
19206;DHT22;59358;52.134;5.596;2022-10-26T14:03:55;20.20;99.90
19206;DHT22;59358;52.134;5.596;2022-10-26T14:06:27;20.30;99.90
19206;DHT22;59358;52.134;5.596;2022-10-26T14:08:57;20.40;99.90
19206;DHT22;59358;52.134;5.596;2022-10-26T14:11:30;20.30;99.90
19206;DHT22;59358;52.134;5.596;2022-10-26T14:13:59;20.20;99.90
19206;DHT22;59358;52.134;5.596;2022-10-26T14:16:29;20.20;99.90
19206;DHT22;59358;52.134;5.596;2022-10-26T14:18:58;20.10;99.90
19206;DHT22;59358;52.134;5.596;2022-10-26T14:21:26;20.10;99.90
19206;DHT22;59358;52.134;5.596;2022-10-26T14:23:55;20.10;99.90
19206;DHT22;59358;52.134;5.596;2022-10-26T14:26:24;20.20;99.90
19206;DHT22;59358;52.134;5.596;2022-10-26T14:28:54;20.20;99.90
19206;DHT22;59358;52.134;5.596;2022-10-26T14:31:24;20.20;99.90
19206;DHT22;59358;52.134;5.596;2022-10-26T14:33:52;20.20;99.90
19206;DHT22;59358;52.134;5.596;2022-10-26T14:36:25;20.20;99.90
19206;DHT22;59358;52.134;5.596;2022-10-26T14:38:56;20.20;99.90
19206;DHT22;59358;52.134;5.596;2022-10-26T14:41:24;20.20;99.90
19206;DHT22;59358;52.134;5.596;2022-10-26T14:43:53;20.30;99.90
19206;DHT22;59358;52.134;5.596;2022-10-26T14:46:21;20.20;99.90
19206;DHT22;59358;52.134;5.596;2022-10-26T14:48:53;20.30;99.90
19206;DHT22;59358;52.134;5.596;2022-10-26T14:51:25;20.30;99.90
19206;DHT22;59358;52.134;5.596;2022-10-26T14:53:54;20.30;99.90
19206;DHT22;59358;52.134;5.596;2022-10-26T14:56:24;20.30;99.90
19206;DHT22;59358;52.134;5.596;2022-10-26T14:58:54;20.30;99.90
19206;DHT22;59358;52.134;5.596;2022-10-26T15:01:29;20.30;99.90
19206;DHT22;59358;52.134;5.596;2022-10-26T15:03:59;20.20;99.90
19206;DHT22;59358;52.134;5.596;2022-10-26T15:06:31;20.20;99.90
19206;DHT22;59358;52.134;5.596;2022-10-26T15:09:00;20.30;99.90
19206;DHT22;59358;52.134;5.596;2022-10-26T15:11:30;20.30;99.90
19206;DHT22;59358;52.134;5.596;2022-10-26T15:13:57;20.20;99.90
19206;DHT22;59358;52.134;5.596;2022-10-26T15:16:26;20.10;99.90
19206;DHT22;59358;52.134;5.596;2022-10-26T15:18:56;20.00;99.90
19206;DHT22;59358;52.134;5.596;2022-10-26T15:21:27;19.80;99.90
19206;DHT22;59358;52.134;5.596;2022-10-26T15:23:57;19.80;99.90
19206;DHT22;59358;52.134;5.596;2022-10-26T15:26:24;19.80;99.90
19206;DHT22;59358;52.134;5.596;2022-10-26T15:28:52;19.90;99.90
19206;DHT22;59358;52.134;5.596;2022-10-26T15:31:30;19.80;99.90
19206;DHT22;59358;52.134;5.596;2022-10-26T15:34:12;19.70;99.90
19206;DHT22;59358;52.134;5.596;2022-10-26T15:36:40;19.60;99.90
19206;DHT22;59358;52.134;5.596;2022-10-26T15:39:09;19.60;99.90
19206;DHT22;59358;52.134;5.596;2022-10-26T15:41:37;19.60;99.90
19206;DHT22;59358;52.134;5.596;2022-10-26T15:44:12;19.80;99.90
19206;DHT22;59358;52.134;5.596;2022-10-26T15:46:40;19.80;99.90
19206;DHT22;59358;52.134;5.596;2022-10-26T15:49:14;19.80;99.90
19206;DHT22;59358;52.134;5.596;2022-10-26T15:51:43;19.60;99.90
19206;DHT22;59358;52.134;5.596;2022-10-26T15:54:12;19.50;99.90
19206;DHT22;59358;52.134;5.596;2022-10-26T15:56:41;19.40;99.90
19206;DHT22;59358;52.134;5.596;2022-10-26T15:59:19;19.30;99.90
19206;DHT22;59358;52.134;5.596;2022-10-26T16:01:46;19.30;99.90
19206;DHT22;59358;52.134;5.596;2022-10-26T16:04:13;19.20;99.90
19206;DHT22;59358;52.134;5.596;2022-10-26T16:06:54;18.90;99.90
19206;DHT22;59358;52.134;5.596;2022-10-26T16:09:27;18.80;99.90